Flight Track Log - Related Links

Times and Time Zones

All times are in EDT time to prevent confusion due to time zone crossing. See the XSR387 flight status page for this flight to view local times or setup timezone preferences in your user account.

Time Position Orientation Groundspeed Altitude Reporting Facility
EDT Latitude Longitude Course Direction KTS MPH feet Rate Location/Type
05:01PM 37.6508 -95.8122 38° Northeast 128 147 3,500  Level Kansas City Center
05:02PM 37.6803 -95.7817 39° Northeast 136 157 4,700 1,268 Climbing Kansas City Center
05:03PM 37.7119 -95.7522 36° Northeast 140 161 6,100 1,403 Climbing Kansas City Center
05:04PM 37.7436 -95.7239 35° Northeast 139 160 7,600 1,210 Climbing Kansas City Center
05:05PM 37.7747 -95.6942 37° Northeast 139 160 8,600 1,122 Climbing Kansas City Center
05:06PM 37.8419 -95.6081 38° Northeast  Level FlightAware Approximate
05:06PM 37.8181 -95.6536 36° Northeast 157 181 9,900  Level Kansas City Center
05:07PM 37.8561 -95.6242 31° Northeast 160 184 10,900 537 Climbing Kansas City Center
05:08PM 37.9028 -95.5908 29° Northeast 186 214 11,000 98 Climbing Kansas City Center
05:09PM 37.9522 -95.5486 34° Northeast 215 247 11,100 48 Climbing Kansas City Center
05:10PM 38.0103 -95.5067 30° Northeast 215 247 11,100  Level Kansas City Center
05:11PM 38.0578 -95.4664 34° Northeast 216 249 11,100 -49 Level Kansas City Center
05:12PM 38.1047 -95.4292 32° Northeast 209 241 11,000 -48 Descending Kansas City Center
05:13PM 38.1614 -95.3853 31° Northeast 212 244 11,000 -195 Level Kansas City Center
05:14PM 38.2089 -95.3453 33° Northeast 213 245 10,600 -878 Descending Kansas City Center
05:15PM 38.2661 -95.2981 33° Northeast 217 250 9,200 -1,268 Descending Kansas City Center
05:16PM 38.3150 -95.2589 32° Northeast 218 251 8,000 -1,073 Descending Kansas City Center
05:17PM 38.3692 -95.2167 31° Northeast 210 242 7,000 -484 Descending Kansas City Center
05:18PM 38.4156 -95.1817 31° Northeast 203 234 7,000  Level Kansas City Center
05:19PM 38.4606 -95.1444 33° Northeast 202 232 7,000  Level Kansas City Center
05:20PM 38.5117 -95.1011 34° Northeast 198 228 7,000  Level Kansas City Center
05:21PM 38.5567 -95.0633 33° Northeast 201 231 7,000  Level Kansas City Center
05:22PM 38.6083 -95.0181 34° Northeast 201 231 7,000 -244 Level Kansas City Center
05:23PM 38.6528 -94.9794 34° Northeast 203 234 6,500 -488 Descending Kansas City Center
05:24PM 38.7058 -94.9358 33° Northeast 202 232 6,000 -390 Descending Kansas City Center
05:25PM 38.7517 -94.8989 32° Northeast 202 232 5,700 -484 Descending Kansas City Center
05:26PM 38.8053 -94.8531 34° Northeast 207 238 5,000 -537 Descending Kansas City Center
05:27PM 38.8489 -94.8172 33° Northeast 198 228 4,600 -488 Descending Kansas City Center
05:28PM 38.8942 -94.7806 32° Northeast 201 231 4,000 -293 Descending Kansas City Center
05:29PM 38.9433 -94.7378 34° Northeast 192 221 4,000 -244 Level Kansas City Center
05:30PM 38.9847 -94.6950 39° Northeast 199 229 3,500 -390 Descending Kansas City Center
05:31PM 39.0297 -94.6450 41° Northeast 192 221 3,200 -439 Descending Kansas City Center
05:32PM 39.0589 -94.6150 39° Northeast 143 165 2,600 -829 Descending Kansas City Center
05:33PM 39.0925 -94.6017 17° North 109 125 1,500 -683 Descending Kansas City Center
05:34PM 39.1164 -94.5950 12° North 103 119 1,200 -290 Descending Kansas City Center
05:36PM 39.1167 -94.5833 38° Northeast  Level FlightAware Approximate

Login

Don't have an account? Register now (free) for customized features, flight alerts, and more!